Time;durP1;ratioP1;P1;durP2;ratioP2;P2;SDS_P1;SDS_P2;PMS_P1;PMS_P2;Temp;Humidity;BMP_temperature;BMP_pressure;BME280_temperature;BME280_humidity;BME280_pressure;Samples;Min_cycle;Max_cycle;Signal;HPM_P1;HPM_P2
2022/08/31 00:03:58;;;;;;;3.70;0.75;;;16.60;95.50;;;;;;4935881;28;210128;-73
2022/08/31 00:06:25;;;;;;;5.57;0.93;;;16.60;95.40;;;;;;4974915;28;20051;-72
2022/08/31 00:08:51;;;;;;;4.07;1.08;;;16.60;95.30;;;;;;4941198;28;211906;-71
2022/08/31 00:11:26;;;;;;;4.88;0.90;;;16.60;95.10;;;;;;4984378;28;20065;-74
2022/08/31 00:13:54;;;;;;;6.28;0.90;;;16.60;95.10;;;;;;4955403;28;209277;-73
2022/08/31 00:16:21;;;;;;;4.38;0.95;;;16.70;94.90;;;;;;4979216;28;20062;-73
2022/08/31 00:18:51;;;;;;;4.80;0.88;;;16.60;94.70;;;;;;4944916;28;213122;-73
2022/08/31 00:21:19;;;;;;;3.63;0.90;;;16.70;94.60;;;;;;4988490;28;20201;-73
2022/08/31 00:23:46;;;;;;;3.17;0.70;;;16.60;94.50;;;;;;4945712;28;206623;-72
2022/08/31 00:26:12;;;;;;;4.55;0.90;;;16.60;94.40;;;;;;4988065;28;20061;-72
2022/08/31 00:28:38;;;;;;;5.68;0.80;;;16.60;94.30;;;;;;4946471;28;188890;-72
2022/08/31 00:31:05;;;;;;;5.15;0.80;;;16.60;94.10;;;;;;4991526;28;20057;-73
2022/08/31 00:33:31;;;;;;;3.67;0.80;;;16.60;94.10;;;;;;4936045;28;206577;-73
2022/08/31 00:35:57;;;;;;;3.95;0.77;;;16.60;93.90;;;;;;4985158;28;20144;-73
2022/08/31 00:38:23;;;;;;;2.58;0.70;;;16.50;93.90;;;;;;4942313;28;208892;-73
2022/08/31 00:40:49;;;;;;;2.17;0.70;;;16.60;93.80;;;;;;4984856;28;20500;-73
2022/08/31 00:43:39;;;;;;;7.05;1.10;;;16.50;93.80;;;;;;4931027;28;213787;-73
2022/08/31 00:46:08;;;;;;;4.90;0.97;;;16.50;93.70;;;;;;4973020;28;20058;-73
2022/08/31 00:48:41;;;;;;;5.55;0.85;;;16.50;93.80;;;;;;4933819;28;210578;-73
2022/08/31 00:51:08;;;;;;;2.38;0.80;;;16.50;93.80;;;;;;4985564;28;20420;-72
2022/08/31 00:53:35;;;;;;;3.65;1.25;;;16.40;93.90;;;;;;4947172;28;135756;-72
2022/08/31 00:56:01;;;;;;;3.30;0.90;;;16.40;93.90;;;;;;4987031;28;20043;-74
2022/08/31 00:58:27;;;;;;;4.50;0.93;;;16.30;93.90;;;;;;4937728;28;214843;-72
2022/08/31 01:00:54;;;;;;;5.57;1.00;;;16.30;94.00;;;;;;4974538;28;20070;-73
2022/08/31 01:03:21;;;;;;;4.45;1.00;;;16.20;94.00;;;;;;4930117;28;206553;-72
2022/08/31 01:05:48;;;;;;;4.82;0.90;;;16.20;94.10;;;;;;4978027;28;20050;-72
2022/08/31 01:08:15;;;;;;;3.97;0.90;;;16.10;94.20;;;;;;4930183;28;208720;-73
2022/08/31 01:10:43;;;;;;;5.20;1.20;;;16.10;94.20;;;;;;4990868;28;20057;-73
2022/08/31 01:13:12;;;;;;;3.83;1.00;;;16.00;94.30;;;;;;4934931;28;209750;-72
2022/08/31 01:15:49;;;;;;;3.35;1.00;;;16.00;94.30;;;;;;4986407;28;20080;-73
2022/08/31 01:18:15;;;;;;;4.68;1.20;;;15.90;94.60;;;;;;4943147;28;208280;-72
2022/08/31 01:21:16;;;;;;;5.75;1.30;;;15.80;94.50;;;;;;4992571;28;20312;-73
2022/08/31 01:23:43;;;;;;;4.30;1.00;;;15.80;94.70;;;;;;4941086;28;212929;-74
2022/08/31 01:26:14;;;;;;;6.03;1.20;;;15.70;94.70;;;;;;4975773;28;20050;-73
2022/08/31 01:28:40;;;;;;;4.05;1.17;;;15.70;94.90;;;;;;4940932;28;210062;-73
2022/08/31 01:31:14;;;;;;;6.22;1.20;;;15.60;95.00;;;;;;4981876;28;20054;-73
2022/08/31 01:33:40;;;;;;;6.13;1.30;;;15.60;95.10;;;;;;4932554;28;216889;-72
2022/08/31 01:36:07;;;;;;;4.85;1.30;;;15.50;95.20;;;;;;4985052;28;20054;-72
2022/08/31 01:38:34;;;;;;;7.32;1.42;;;15.50;95.40;;;;;;4922323;28;205654;-73
2022/08/31 01:41:02;;;;;;;6.57;1.60;;;15.50;95.60;;;;;;4980861;28;20049;-72
2022/08/31 01:43:32;;;;;;;6.72;1.58;;;15.40;95.60;;;;;;4945191;28;213531;-72
2022/08/31 01:46:01;;;;;;;5.30;1.33;;;15.40;95.70;;;;;;4991960;28;20053;-72
2022/08/31 01:48:27;;;;;;;4.82;1.30;;;15.30;95.80;;;;;;4939657;28;217500;-72
2022/08/31 01:50:53;;;;;;;6.78;1.70;;;15.30;95.90;;;;;;4984016;28;20046;-72
2022/08/31 01:53:19;;;;;;;5.90;1.50;;;15.20;96.10;;;;;;4937447;28;214990;-73
2022/08/31 01:55:45;;;;;;;6.35;1.50;;;15.10;96.30;;;;;;4981842;28;20069;-72
2022/08/31 01:58:12;;;;;;;6.53;1.50;;;15.10;96.40;;;;;;4933030;28;208678;-72
2022/08/31 02:00:39;;;;;;;4.57;1.40;;;15.00;96.60;;;;;;4979468;28;20054;-72
2022/08/31 02:03:06;;;;;;;5.28;1.45;;;15.00;96.70;;;;;;4939364;28;219502;-72
2022/08/31 02:05:34;;;;;;;5.50;1.50;;;14.90;96.80;;;;;;4982457;28;20058;-72
2022/08/31 02:08:02;;;;;;;4.85;1.30;;;14.90;96.90;;;;;;4940622;28;208286;-72
2022/08/31 02:10:28;;;;;;;4.97;1.10;;;14.80;97.10;;;;;;4990884;28;20046;-74
2022/08/31 02:12:55;;;;;;;6.07;1.20;;;14.70;97.20;;;;;;4940825;28;210370;-73
2022/08/31 02:15:21;;;;;;;4.47;1.00;;;14.70;97.40;;;;;;4995836;28;20058;-73
2022/08/31 02:17:48;;;;;;;4.32;1.05;;;14.60;97.40;;;;;;4938835;28;210256;-72
2022/08/31 02:20:15;;;;;;;4.03;1.00;;;14.60;97.50;;;;;;4980922;28;20050;-72
2022/08/31 02:22:41;;;;;;;3.78;0.90;;;14.60;97.60;;;;;;4948090;28;216851;-72
2022/08/31 02:25:08;;;;;;;4.05;1.00;;;14.50;97.80;;;;;;4963051;28;20053;-71
2022/08/31 02:27:35;;;;;;;5.13;1.00;;;14.50;97.80;;;;;;4955092;28;209922;-70
2022/08/31 02:30:06;;;;;;;4.43;0.98;;;14.40;97.90;;;;;;4955892;28;20336;-72
2022/08/31 02:32:32;;;;;;;3.10;0.90;;;14.40;98.00;;;;;;4965937;28;210892;-72
2022/08/31 02:34:58;;;;;;;4.53;0.80;;;14.30;98.10;;;;;;4956424;28;28427;-72
2022/08/31 02:37:24;;;;;;;3.70;0.90;;;14.30;98.30;;;;;;4981555;28;20444;-73
2022/08/31 02:39:50;;;;;;;3.35;0.90;;;14.30;98.40;;;;;;4935437;28;217816;-72
2022/08/31 02:42:17;;;;;;;4.05;0.80;;;14.20;98.40;;;;;;4984123;28;20043;-72
2022/08/31 02:44:44;;;;;;;3.47;0.82;;;14.20;98.50;;;;;;4942036;28;206119;-73
2022/08/31 02:47:10;;;;;;;4.38;0.70;;;14.10;98.60;;;;;;4978218;28;20551;-73
2022/08/31 02:49:36;;;;;;;3.83;0.80;;;14.10;98.80;;;;;;4931498;28;205484;-71
2022/08/31 02:52:03;;;;;;;3.15;0.90;;;14.10;98.80;;;;;;4982261;28;20047;-71
2022/08/31 02:54:29;;;;;;;3.88;0.80;;;14.00;98.90;;;;;;4929851;28;214668;-72
2022/08/31 02:56:55;;;;;;;2.30;0.70;;;14.00;98.90;;;;;;4959407;28;20061;-72
2022/08/31 02:59:21;;;;;;;3.63;0.77;;;14.00;99.00;;;;;;4932514;28;169245;-72
2022/08/31 03:01:48;;;;;;;2.35;0.80;;;14.00;99.10;;;;;;4981406;28;20062;-71
2022/08/31 03:04:15;;;;;;;3.33;0.80;;;13.90;99.20;;;;;;4931856;28;210120;-73
2022/08/31 03:06:41;;;;;;;3.33;0.80;;;13.90;99.30;;;;;;4977668;28;20511;-73
2022/08/31 03:09:07;;;;;;;3.05;0.80;;;13.80;99.40;;;;;;4923945;28;205673;-73
2022/08/31 03:11:33;;;;;;;3.35;0.80;;;13.80;99.50;;;;;;4980674;28;20074;-73
2022/08/31 03:14:00;;;;;;;3.60;0.82;;;13.80;99.60;;;;;;4930402;28;207423;-73
2022/08/31 03:16:26;;;;;;;1.92;0.63;;;13.70;99.70;;;;;;4976660;28;20503;-73
2022/08/31 03:18:52;;;;;;;9.48;0.90;;;13.70;99.90;;;;;;4933421;28;205093;-73
2022/08/31 03:21:18;;;;;;;3.45;0.88;;;13.60;99.90;;;;;;4985240;28;20039;-72
2022/08/31 03:23:44;;;;;;;5.72;0.90;;;13.60;99.90;;;;;;4932955;28;213540;-72
2022/08/31 03:26:11;;;;;;;3.45;0.82;;;13.50;99.90;;;;;;4972975;28;20049;-73
2022/08/31 03:28:37;;;;;;;3.83;0.90;;;13.50;99.90;;;;;;4932177;28;211920;-72
2022/08/31 03:31:08;;;;;;;4.32;1.00;;;13.50;99.90;;;;;;4983545;28;20462;-72
2022/08/31 03:33:34;;;;;;;4.35;0.90;;;13.50;99.90;;;;;;4956524;28;215769;-71
2022/08/31 03:36:01;;;;;;;2.97;0.63;;;13.40;99.90;;;;;;4991270;28;20061;-71
2022/08/31 03:38:28;;;;;;;2.53;0.68;;;13.40;99.90;;;;;;4949758;28;211217;-72
2022/08/31 03:40:54;;;;;;;4.35;0.70;;;13.40;99.90;;;;;;4976175;28;20073;-72
2022/08/31 03:43:20;;;;;;;2.53;0.75;;;13.30;99.90;;;;;;4938306;28;205925;-72
2022/08/31 03:45:48;;;;;;;6.40;0.90;;;13.30;99.90;;;;;;4992103;28;20410;-72
2022/08/31 03:48:15;;;;;;;3.53;0.90;;;13.30;99.90;;;;;;4951914;28;213488;-72
2022/08/31 03:50:42;;;;;;;3.75;0.90;;;13.20;99.90;;;;;;4993000;28;20054;-72
2022/08/31 03:53:08;;;;;;;4.20;0.80;;;13.20;99.90;;;;;;4947170;28;210966;-73
2022/08/31 03:55:39;;;;;;;4.57;0.88;;;13.20;99.90;;;;;;4989982;28;20142;-72
2022/08/31 03:58:06;;;;;;;4.07;1.08;;;13.10;99.90;;;;;;4946462;28;213122;-72
2022/08/31 04:00:33;;;;;;;3.33;0.75;;;13.10;99.90;;;;;;4983254;28;20063;-72
2022/08/31 04:03:00;;;;;;;3.50;1.02;;;13.10;99.90;;;;;;4936357;28;205741;-72
2022/08/31 04:05:31;;;;;;;3.72;0.90;;;13.10;99.90;;;;;;4998253;28;20053;-72
2022/08/31 04:07:57;;;;;;;;;;;13.10;99.90;;;;;;4951266;28;206565;-72
2022/08/31 04:10:23;;;;;;;6.32;1.10;;;13.00;99.90;;;;;;4969410;28;19971;-72
2022/08/31 04:12:50;;;;;;;4.78;0.90;;;13.00;99.90;;;;;;4923882;28;215578;-72
2022/08/31 04:15:16;;;;;;;3.95;0.90;;;12.90;99.90;;;;;;4981286;28;20084;-71
2022/08/31 04:17:44;;;;;;;3.70;0.98;;;12.90;99.90;;;;;;4936156;28;209403;-72
2022/08/31 04:20:11;;;;;;;3.95;1.05;;;12.90;99.90;;;;;;4982359;28;20415;-72
2022/08/31 04:22:37;;;;;;;4.15;1.00;;;12.90;99.90;;;;;;4937285;28;212770;-71
2022/08/31 04:25:03;;;;;;;3.75;1.00;;;12.90;99.90;;;;;;4973511;28;20050;-71
2022/08/31 04:27:29;;;;;;;4.22;0.98;;;12.80;99.90;;;;;;4969311;28;215653;-71
2022/08/31 04:29:56;;;;;;;4.22;1.10;;;12.80;99.90;;;;;;4959618;28;179526;-71
2022/08/31 04:32:22;;;;;;;6.03;1.15;;;12.70;99.90;;;;;;4981929;28;20046;-71
2022/08/31 04:34:48;;;;;;;3.88;0.90;;;12.80;99.90;;;;;;4949622;28;212292;-71
2022/08/31 04:37:14;;;;;;;3.38;0.90;;;12.70;99.90;;;;;;4983004;28;20046;-71
2022/08/31 04:39:41;;;;;;;3.70;1.00;;;12.70;99.90;;;;;;4939722;28;209469;-71
2022/08/31 04:42:09;;;;;;;3.78;0.90;;;12.70;99.90;;;;;;4984000;28;20050;-71
2022/08/31 04:44:35;;;;;;;4.75;1.00;;;12.70;99.90;;;;;;4951941;28;211339;-71
2022/08/31 04:47:01;;;;;;;5.22;1.05;;;12.60;99.90;;;;;;4989229;28;20054;-72
2022/08/31 04:49:27;;;;;;;6.35;1.00;;;12.60;99.90;;;;;;4930580;28;212856;-71
2022/08/31 04:51:53;;;;;;;6.20;1.20;;;12.60;99.90;;;;;;4983773;28;20435;-73
2022/08/31 04:54:20;;;;;;;3.72;0.93;;;12.60;99.90;;;;;;4986649;28;20537;-72
2022/08/31 04:56:46;;;;;;;4.68;1.02;;;12.60;99.90;;;;;;4984191;28;20054;-71
2022/08/31 04:59:17;;;;;;;4.90;1.17;;;12.60;99.90;;;;;;4927223;28;205365;-71
2022/08/31 05:01:44;;;;;;;;;;;12.60;99.90;;;;;;4979521;28;20134;-72
2022/08/31 05:04:12;;;;;;;4.00;1.08;;;12.60;99.90;;;;;;4914777;28;216413;-72
2022/08/31 05:06:41;;;;;;;5.10;1.10;;;12.50;99.90;;;;;;4987493;28;20047;-72
2022/08/31 05:09:10;;;;;;;4.40;1.02;;;12.50;99.90;;;;;;4936294;28;206977;-72
2022/08/31 05:11:37;;;;;;;3.42;0.80;;;12.50;99.90;;;;;;4984203;28;20054;-73
2022/08/31 05:14:05;;;;;;;6.50;1.02;;;12.60;99.90;;;;;;4929250;28;215872;-72
2022/08/31 05:16:33;;;;;;;5.82;1.00;;;12.50;99.90;;;;;;4980690;28;20059;-72
2022/08/31 05:19:00;;;;;;;4.75;0.98;;;12.50;99.90;;;;;;4956267;28;212839;-72
2022/08/31 05:21:29;;;;;;;4.55;1.25;;;12.60;99.90;;;;;;4979488;28;20405;-72
2022/08/31 05:23:58;;;;;;;5.03;1.00;;;12.60;99.90;;;;;;4939532;28;214480;-71
2022/08/31 05:26:27;;;;;;;3.40;1.00;;;12.60;99.90;;;;;;4983461;28;20503;-71
2022/08/31 05:28:54;;;;;;;7.30;1.40;;;12.70;99.90;;;;;;4931731;28;209512;-72
2022/08/31 05:31:20;;;;;;;5.65;1.13;;;12.70;99.90;;;;;;4980712;28;20073;-74
2022/08/31 05:33:47;;;;;;;4.50;0.93;;;12.70;99.90;;;;;;4945780;28;222672;-71
2022/08/31 05:36:13;;;;;;;5.03;1.25;;;12.70;99.90;;;;;;4984233;28;20062;-72
2022/08/31 05:38:40;;;;;;;7.70;1.10;;;12.80;99.90;;;;;;4936771;28;209346;-73
2022/08/31 05:41:07;;;;;;;4.05;0.98;;;12.80;99.90;;;;;;4976325;28;20569;-73
2022/08/31 05:43:34;;;;;;;4.40;1.00;;;12.80;99.90;;;;;;4922009;28;209870;-72
2022/08/31 05:46:00;;;;;;;5.03;1.20;;;12.90;99.90;;;;;;4980958;28;20073;-71
2022/08/31 05:48:32;;;;;;;6.05;1.25;;;12.90;99.90;;;;;;4954666;28;211917;-74
2022/08/31 05:51:07;;;;;;;4.28;0.82;;;13.00;99.90;;;;;;4988135;28;20053;-73
2022/08/31 05:53:35;;;;;;;8.30;1.20;;;13.10;99.90;;;;;;4918016;28;210541;-70
2022/08/31 05:56:08;;;;;;;5.45;1.10;;;13.10;99.90;;;;;;4979004;28;20061;-70
2022/08/31 05:58:37;;;;;;;5.40;1.13;;;13.20;99.90;;;;;;4951680;28;212127;-69
2022/08/31 06:01:11;;;;;;;4.80;0.98;;;13.30;99.90;;;;;;4987120;28;20419;-70
2022/08/31 06:03:37;;;;;;;3.38;0.85;;;13.30;99.90;;;;;;4950354;28;215510;-70
2022/08/31 06:06:03;;;;;;;4.05;1.00;;;13.40;99.90;;;;;;4988526;28;20046;-70
2022/08/31 06:08:29;;;;;;;4.35;0.95;;;13.40;99.90;;;;;;4954282;28;209898;-69
2022/08/31 06:10:59;;;;;;;6.32;1.00;;;13.50;99.90;;;;;;4991249;28;20058;-69
2022/08/31 06:13:25;;;;;;;6.18;1.10;;;13.60;99.90;;;;;;4957620;28;210253;-69
2022/08/31 06:15:52;;;;;;;3.92;0.98;;;13.60;99.90;;;;;;4989732;28;20447;-70
2022/08/31 06:18:19;;;;;;;4.18;0.90;;;13.80;99.90;;;;;;4943245;28;216790;-70
2022/08/31 06:20:46;;;;;;;6.57;1.10;;;13.80;99.90;;;;;;4979633;28;20061;-70
2022/08/31 06:23:12;;;;;;;4.07;1.05;;;13.90;99.90;;;;;;4932603;28;210712;-70
2022/08/31 06:25:39;;;;;;;3.50;0.90;;;14.10;99.90;;;;;;4983664;28;20064;-69
2022/08/31 06:28:06;;;;;;;4.63;1.00;;;14.60;99.90;;;;;;4936454;28;207862;-70
2022/08/31 06:30:38;;;;;;;6.05;1.10;;;15.10;99.90;;;;;;4989355;28;20050;-71
2022/08/31 06:33:05;;;;;;;4.75;1.00;;;15.30;99.90;;;;;;4949882;28;215404;-69
2022/08/31 06:35:31;;;;;;;5.57;1.00;;;15.40;99.90;;;;;;4959796;28;20110;-69
2022/08/31 06:37:58;;;;;;;5.97;1.17;;;15.50;99.90;;;;;;4964878;28;210023;-70
2022/08/31 06:40:25;;;;;;;5.78;1.00;;;15.60;99.90;;;;;;4994633;28;20574;-70
2022/08/31 06:42:51;;;;;;;4.53;0.95;;;15.80;99.90;;;;;;4940588;28;216189;-70
2022/08/31 06:45:17;;;;;;;6.85;1.27;;;16.20;99.90;;;;;;4993849;28;20061;-71
2022/08/31 06:47:43;;;;;;;4.03;1.10;;;16.60;99.90;;;;;;4942892;28;213408;-70
2022/08/31 06:50:12;;;;;;;5.63;1.00;;;17.00;99.90;;;;;;4978590;28;20058;-70
2022/08/31 06:52:38;;;;;;;9.20;1.20;;;17.40;99.90;;;;;;4937854;28;226818;-70
2022/08/31 06:55:05;;;;;;;6.75;1.23;;;17.80;99.90;;;;;;4987209;28;20058;-70
2022/08/31 06:57:31;;;;;;;6.90;1.20;;;18.20;99.90;;;;;;4942621;28;218086;-70
2022/08/31 06:59:57;;;;;;;4.65;1.10;;;18.50;99.90;;;;;;4989232;28;20050;-68
2022/08/31 07:02:24;;;;;;;6.55;1.30;;;18.80;99.90;;;;;;4950507;28;220244;-70
2022/08/31 07:04:50;;;;;;;7.40;1.13;;;19.10;99.80;;;;;;5003372;28;20054;-70
2022/08/31 07:07:16;;;;;;;5.03;1.20;;;19.30;99.80;;;;;;4942883;28;213276;-70
2022/08/31 07:09:43;;;;;;;4.53;1.10;;;19.50;99.50;;;;;;4988719;28;20881;-69
2022/08/31 07:12:09;;;;;;;6.57;1.00;;;19.70;99.20;;;;;;4926694;28;232591;-69
2022/08/31 07:14:36;;;;;;;5.78;1.10;;;19.90;98.50;;;;;;4972312;28;20586;-70
2022/08/31 07:17:03;;;;;;;6.28;1.10;;;20.00;98.20;;;;;;4965434;28;225454;-69
2022/08/31 07:19:29;;;;;;;9.13;1.27;;;20.20;97.80;;;;;;4943165;28;206343;-71
2022/08/31 07:21:58;;;;;;;6.55;1.10;;;20.40;97.80;;;;;;4957097;28;20070;-70
2022/08/31 07:24:30;;;;;;;6.80;1.00;;;20.50;97.40;;;;;;4920471;28;210138;-69
2022/08/31 07:27:03;;;;;;;6.35;1.20;;;20.60;97.20;;;;;;4967064;28;20069;-70
2022/08/31 07:29:36;;;;;;;4.28;1.00;;;20.90;97.00;;;;;;4916495;28;221043;-70
2022/08/31 07:32:02;;;;;;;6.28;1.00;;;21.10;96.60;;;;;;4996678;28;189187;-70
2022/08/31 07:34:30;;;;;;;6.55;1.08;;;21.30;96.70;;;;;;4981468;28;174620;-70
2022/08/31 07:42:32;;;;;;;5.90;1.00;;;21.90;95.30;;;;;;4942535;28;210995;-69
2022/08/31 07:45:00;;;;;;;4.43;1.10;;;22.10;95.10;;;;;;4978208;28;20073;-70
2022/08/31 07:47:28;;;;;;;3.50;0.80;;;22.20;94.10;;;;;;4944367;28;224194;-70
2022/08/31 07:49:57;;;;;;;5.68;0.90;;;22.20;93.50;;;;;;4990200;28;20051;-71
2022/08/31 07:52:26;;;;;;;3.90;0.80;;;22.30;93.50;;;;;;4940993;28;229022;-70
2022/08/31 07:54:56;;;;;;;4.70;0.80;;;22.50;93.10;;;;;;4992927;28;20045;-70
2022/08/31 07:57:24;;;;;;;5.00;1.00;;;22.70;92.60;;;;;;4944731;28;218455;-70
2022/08/31 08:00:07;;;;;;;4.22;0.80;;;23.00;92.40;;;;;;4989177;28;20050;-70
2022/08/31 08:02:37;;;;;;;5.93;1.00;;;23.20;91.70;;;;;;4937452;28;236520;-70
2022/08/31 08:05:20;;;;;;;5.45;1.10;;;23.40;91.60;;;;;;4990062;28;20495;-70
2022/08/31 08:07:48;;;;;;;3.97;0.80;;;23.70;91.30;;;;;;4938036;28;209675;-70
2022/08/31 08:10:17;;;;;;;4.20;0.80;;;24.00;90.80;;;;;;4987469;28;20049;-70
2022/08/31 08:12:47;;;;;;;2.85;0.80;;;24.00;89.90;;;;;;4951727;28;210647;-70
2022/08/31 08:15:14;;;;;;;6.95;1.00;;;24.20;89.20;;;;;;4983666;28;20054;-70
2022/08/31 08:17:40;;;;;;;5.05;0.77;;;24.30;87.30;;;;;;4951725;28;211174;-70
2022/08/31 08:20:07;;;;;;;3.58;0.75;;;24.50;86.80;;;;;;4985103;28;20073;-70
2022/08/31 08:22:38;;;;;;;2.65;0.80;;;24.60;85.20;;;;;;4944531;28;211559;-70
2022/08/31 08:25:05;;;;;;;14.25;1.25;;;24.70;84.30;;;;;;4980431;28;20055;-70
2022/08/31 08:27:32;;;;;;;3.03;0.63;;;24.80;82.50;;;;;;4938951;28;209594;-71
2022/08/31 08:29:59;;;;;;;4.90;0.80;;;24.90;82.70;;;;;;4992711;28;20467;-71
2022/08/31 08:32:25;;;;;;;4.07;0.90;;;25.10;82.00;;;;;;4942067;28;215419;-71
2022/08/31 08:34:51;;;;;;;4.80;0.80;;;25.00;80.80;;;;;;4964829;28;20042;-71
2022/08/31 08:37:17;;;;;;;4.70;0.85;;;25.00;80.00;;;;;;4939114;28;207658;-70
2022/08/31 08:39:43;;;;;;;7.85;1.00;;;25.00;80.30;;;;;;4982582;28;20419;-70
2022/08/31 08:42:12;;;;;;;6.00;0.80;;;25.10;79.20;;;;;;4946994;28;209705;-70
2022/08/31 08:44:40;;;;;;;4.38;0.90;;;25.20;78.40;;;;;;5002280;28;20066;-71
2022/08/31 08:47:14;;;;;;;4.07;0.90;;;25.30;78.00;;;;;;4960509;28;216948;-67
2022/08/31 08:49:49;;;;;;;4.45;1.00;;;25.30;77.10;;;;;;4985746;28;20488;-70
2022/08/31 08:52:40;;;;;;;4.22;0.93;;;25.40;77.60;;;;;;4946055;28;210012;-69
2022/08/31 08:55:08;;;;;;;;;;;25.60;76.90;;;;;;4985007;28;20062;-70
2022/08/31 08:57:38;;;;;;;6.18;1.00;;;25.70;75.20;;;;;;4934120;28;209324;-70
2022/08/31 09:00:09;;;;;;;8.88;1.15;;;25.80;76.50;;;;;;4985199;28;20054;-70
2022/08/31 09:02:45;;;;;;;8.70;0.85;;;26.00;76.20;;;;;;4943643;28;210610;-70
2022/08/31 09:05:23;;;;;;;2.85;0.80;;;26.20;74.70;;;;;;4996133;28;20528;-70
2022/08/31 09:07:49;;;;;;;4.30;0.82;;;26.50;73.00;;;;;;4948971;28;215285;-70
2022/08/31 09:10:32;;;;;;;2.78;0.80;;;26.70;74.50;;;;;;4987580;28;20058;-70
2022/08/31 09:13:42;;;;;;;4.50;0.73;;;27.00;73.00;;;;;;4941337;28;209158;-71
2022/08/31 09:16:39;;;;;;;8.10;1.00;;;27.20;70.90;;;;;;4985558;28;20442;-71
2022/08/31 09:19:13;;;;;;;8.93;0.98;;;27.40;71.00;;;;;;4920474;28;210990;-71
2022/08/31 09:21:46;;;;;;;2.83;0.80;;;27.40;71.10;;;;;;4989214;28;20503;-71
2022/08/31 09:24:18;;;;;;;6.20;0.93;;;27.50;69.10;;;;;;4941219;28;211462;-71
2022/08/31 09:27:16;;;;;;;2.80;0.70;;;27.50;68.80;;;;;;4986600;28;20692;-71
2022/08/31 09:30:00;;;;;;;4.03;0.77;;;27.60;68.00;;;;;;4942503;28;208522;-71
2022/08/31 09:32:31;;;;;;;4.93;0.80;;;27.90;67.70;;;;;;4950357;28;214854;-71
2022/08/31 09:35:07;;;;;;;5.32;0.75;;;28.10;67.40;;;;;;4985562;28;20055;-71
2022/08/31 09:37:40;;;;;;;5.22;0.90;;;28.20;66.00;;;;;;4941577;28;209780;-71
2022/08/31 09:40:19;;;;;;;4.43;0.90;;;28.00;66.20;;;;;;4981926;28;20081;-71
2022/08/31 09:43:00;;;;;;;3.28;0.77;;;28.00;64.40;;;;;;4941659;28;208082;-71
2022/08/31 09:45:34;;;;;;;4.45;0.80;;;28.10;65.30;;;;;;4993077;28;20065;-70
2022/08/31 09:48:04;;;;;;;3.88;0.90;;;28.30;64.20;;;;;;4945603;28;215337;-70
2022/08/31 09:50:32;;;;;;;5.20;0.83;;;28.30;64.00;;;;;;4996535;28;20058;-71
2022/08/31 09:56:14;;;;;;;4.15;0.73;;;28.90;62.90;;;;;;4984440;28;20053;-69
2022/08/31 09:59:03;;;;;;;4.65;0.75;;;29.20;63.50;;;;;;4957235;28;215299;-70
2022/08/31 10:01:43;;;;;;;3.88;0.70;;;29.60;60.90;;;;;;4981462;28;20059;-70
2022/08/31 10:04:14;;;;;;;;;;;29.70;61.80;;;;;;4942150;28;209337;-70
2022/08/31 10:07:18;;;;;;;4.25;0.70;;;29.70;60.00;;;;;;4987684;28;19926;-70
2022/08/31 10:09:50;;;;;;;5.45;0.65;;;29.60;59.20;;;;;;4922252;28;209972;-70
2022/08/31 10:13:01;;;;;;;6.13;0.90;;;29.60;59.70;;;;;;4940407;28;213997;-70
2022/08/31 10:15:38;;;;;;;3.92;0.60;;;29.80;58.30;;;;;;4906245;29;20529;-69
2022/08/31 10:18:12;;;;;;;2.40;0.63;;;29.60;59.20;;;;;;4865550;29;218117;-69
2022/08/31 10:20:54;;;;;;;2.67;0.77;;;29.80;57.60;;;;;;4905042;29;20055;-70
2022/08/31 10:23:32;;;;;;;4.28;0.70;;;29.80;57.00;;;;;;4867534;29;210329;-71
2022/08/31 10:26:06;;;;;;;2.65;0.80;;;29.70;57.00;;;;;;4905938;29;20056;-71
2022/08/31 10:28:54;;;;;;;4.05;0.90;;;29.60;56.80;;;;;;4868569;29;206861;-69
2022/08/31 10:31:32;;;;;;;4.57;0.80;;;29.90;57.10;;;;;;4892885;29;20056;-69
2022/08/31 10:36:50;;;;;;;6.13;0.90;;;30.00;54.60;;;;;;4909633;29;20450;-69
2022/08/31 10:39:38;;;;;;;3.05;0.70;;;30.20;56.00;;;;;;4866323;29;209867;-70
2022/08/31 10:42:09;;;;;;;4.88;0.80;;;30.40;54.40;;;;;;4893861;29;107523;-70
2022/08/31 10:44:55;;;;;;;5.90;1.00;;;30.70;55.30;;;;;;4855874;29;212547;-69
2022/08/31 10:47:28;;;;;;;4.72;0.73;;;30.90;54.50;;;;;;4864267;29;210821;-68
2022/08/31 10:49:56;;;;;;;6.00;1.02;;;30.90;53.70;;;;;;4938586;28;20420;-70
2022/08/31 10:52:50;;;;;;;8.90;0.90;;;30.20;52.70;;;;;;4917039;28;209571;-70
2022/08/31 10:55:50;;;;;;;3.30;0.60;;;30.00;53.90;;;;;;4913207;29;20108;-69
2022/08/31 10:58:31;;;;;;;4.53;0.90;;;29.80;53.10;;;;;;4861484;29;206990;-70
2022/08/31 11:01:08;;;;;;;6.72;0.90;;;29.90;53.80;;;;;;4901271;29;20055;-70
2022/08/31 11:03:56;;;;;;;3.20;0.85;;;30.20;53.30;;;;;;4861861;29;206949;-69
2022/08/31 11:06:40;;;;;;;3.08;0.73;;;30.50;52.40;;;;;;4926385;29;20060;-69
2022/08/31 11:09:31;;;;;;;1.48;0.60;;;30.40;52.30;;;;;;4889268;29;162708;-69
2022/08/31 11:12:05;;;;;;;2.67;0.70;;;30.60;51.70;;;;;;4923960;29;20056;-69
2022/08/31 11:14:32;;;;;;;5.25;0.85;;;30.60;52.80;;;;;;4876608;29;206135;-68
2022/08/31 11:17:35;;;;;;;3.53;0.70;;;30.90;52.60;;;;;;4929213;29;20093;-69
2022/08/31 11:20:25;;;;;;;3.55;0.60;;;30.90;51.30;;;;;;4865230;29;207824;-69
2022/08/31 11:23:25;;;;;;;3.45;0.80;;;30.80;51.20;;;;;;4879812;28;212622;-70
2022/08/31 11:25:51;;;;;;;;;;;31.30;50.50;;;;;;4922620;29;20202;-69
2022/08/31 11:28:32;;;;;;;4.38;0.93;;;31.20;49.90;;;;;;4892308;28;218346;-70
2022/08/31 11:31:22;;;;;;;2.22;0.70;;;31.20;49.90;;;;;;4931198;28;20059;-69
2022/08/31 11:33:56;;;;;;;3.53;0.70;;;31.60;50.50;;;;;;4944617;28;216151;-69
2022/08/31 11:36:40;;;;;;;4.55;0.70;;;31.60;49.70;;;;;;4980340;28;20061;-69
2022/08/31 11:39:06;;;;;;;3.22;0.75;;;31.70;49.00;;;;;;4940042;28;214451;-69
2022/08/31 11:41:45;;;;;;;4.90;0.80;;;31.70;49.50;;;;;;4978801;28;20050;-69
2022/08/31 11:44:30;;;;;;;2.08;0.75;;;32.00;49.20;;;;;;4932783;28;211254;-69
2022/08/31 11:47:25;;;;;;;3.20;0.70;;;32.30;49.00;;;;;;4982554;28;20062;-69
2022/08/31 11:49:54;;;;;;;2.65;0.77;;;32.50;48.50;;;;;;4927702;28;205960;-69
2022/08/31 11:52:24;;;;;;;4.87;0.90;;;32.50;48.80;;;;;;4936390;28;206812;-70
2022/08/31 11:54:51;;;;;;;3.95;0.80;;;32.50;47.90;;;;;;4974062;28;20057;-71
2022/08/31 11:57:22;;;;;;;4.38;0.70;;;32.30;47.90;;;;;;4940098;28;212894;-69
2022/08/31 11:59:49;;;;;;;4.75;0.80;;;32.20;48.40;;;;;;4988736;28;20081;-70
2022/08/31 12:02:21;;;;;;;3.95;0.80;;;32.20;48.00;;;;;;4939632;28;216977;-71
2022/08/31 12:05:03;;;;;;;4.47;0.73;;;32.40;46.20;;;;;;4970433;28;20054;-70
2022/08/31 12:07:35;;;;;;;2.58;0.70;;;32.60;47.00;;;;;;4933001;28;213817;-70
2022/08/31 12:10:16;;;;;;;3.97;0.80;;;32.60;46.20;;;;;;4984943;28;20085;-70
2022/08/31 12:12:57;;;;;;;3.50;0.73;;;32.60;46.60;;;;;;4935872;28;219346;-71
2022/08/31 12:15:46;;;;;;;3.45;0.80;;;32.80;46.00;;;;;;4984343;28;20425;-70
2022/08/31 12:18:18;;;;;;;3.55;0.70;;;32.70;45.10;;;;;;4946109;28;209237;-71
2022/08/31 12:24:29;;;;;;;3.30;0.70;;;33.00;45.40;;;;;;4906440;28;230037;-71
2022/08/31 12:27:13;;;;;;;4.25;0.75;;;32.90;45.90;;;;;;4950362;28;20059;-70
2022/08/31 12:29:40;;;;;;;3.88;0.90;;;33.00;45.10;;;;;;4896591;28;149014;-70
2022/08/31 12:32:12;;;;;;;2.45;0.60;;;32.70;45.60;;;;;;4910983;29;191080;-69
2022/08/31 12:34:49;;;;;;;4.30;0.70;;;32.70;45.70;;;;;;4901631;29;210366;-70
2022/08/31 12:37:28;;;;;;;2.35;0.68;;;32.90;45.60;;;;;;4881619;28;206897;-71
2022/08/31 12:40:11;;;;;;;6.38;0.85;;;33.30;45.50;;;;;;4931479;29;20070;-71
2022/08/31 12:42:56;;;;;;;3.42;0.77;;;33.30;44.80;;;;;;4883825;29;210712;-70
2022/08/31 12:46:05;;;;;;;4.50;0.80;;;33.20;45.10;;;;;;4927798;29;20537;-71
2022/08/31 12:48:52;;;;;;;4.60;0.70;;;33.20;44.30;;;;;;4867384;29;206553;-71
2022/08/31 12:51:56;;;;;;;3.65;0.80;;;32.80;43.70;;;;;;4916838;29;20064;-70
2022/08/31 12:54:43;;;;;;;5.15;0.80;;;32.80;44.90;;;;;;4832518;29;207008;-71
2022/08/31 12:57:30;;;;;;;5.72;0.80;;;33.00;45.10;;;;;;4827210;29;207198;-70
2022/08/31 12:59:56;;;;;;;4.65;0.88;;;33.20;44.90;;;;;;4871839;29;20057;-70
2022/08/31 13:02:23;;;;;;;3.40;0.60;;;33.40;44.70;;;;;;4827700;29;204861;-70
2022/08/31 13:04:50;;;;;;;8.15;0.73;;;33.80;45.30;;;;;;4875711;29;20067;-71
2022/08/31 13:07:32;;;;;;;4.63;0.90;;;33.90;44.10;;;;;;4839981;29;206574;-70
2022/08/31 13:10:32;;;;;;;3.13;0.80;;;33.70;43.60;;;;;;4881285;29;20063;-70
2022/08/31 13:13:08;;;;;;;3.65;0.88;;;33.70;42.60;;;;;;4842808;29;204309;-70
2022/08/31 13:15:37;;;;;;;2.70;0.73;;;33.50;42.90;;;;;;4884039;29;20841;-71
2022/08/31 13:18:22;;;;;;;4.63;0.77;;;33.30;43.30;;;;;;4841979;29;207128;-70
2022/08/31 13:20:55;;;;;;;4.07;0.82;;;33.10;42.80;;;;;;4869114;29;20060;-71
2022/08/31 13:23:29;;;;;;;7.72;0.90;;;32.70;43.40;;;;;;4843563;29;207238;-70